Aviation Digital Data Service (ADDS)

Output produced by METARs form (0440 UTC 25 April 2017)
found at http://www.aviationweather.gov/adds/metars/
 
METAR text: RJNK 250400Z 18013KT 9999 FEW030 BKN230 24/04 Q1021
Conditions at: RJNK (KOMATSU (CIV/JAS, JP) observed 0400 UTC 25 April 2017
Temperature: 24.0°C (75°F)
Dewpoint: 4.0°C (39°F) [RH = 27%]
Pressure (altimeter): 30.15 inches Hg (1021.0 mb)
Winds: from the S (180 degrees) at 15 MPH (13 knots; 6.8 m/s)
Visibility: 6 or more miles (10+ km)
Ceiling: 23000 feet AGL
Clouds: few clouds at 3000 feet AGL
broken clouds at 23000 feet AGL
Weather: no significant weather observed at this time